Latest Weather Observations for Noarlunga

IDS60901

Issued at 2:51 pm CST Sunday 18 August 2019 (issued every 10 minutes, with the page automatically refreshed every 10 minutes)

About weather observations | Map of Adelaide area stations | Latest observations for Adelaide area | Other Formats
Station Details ID: 023885 Name: NOARLUNGA Lat: -35.16 Lon: 138.51 Height: 55.0 m
Data from the previous 72 hours. | See also: Recent months at Noarlunga
Date/Time
CST
Temp
°C
App
Temp
°C
Dew
Point
°C
Rel
Hum
%
Delta-T
°C
Wind Press
QNH
hPa
Press
MSL
hPa
Rain since
9am
mm
Dir  Spd
km/h
Gust
km/h
Spd
kts
Gust
kts
18/02:30pm 9.5 6.6 4.9 73 2.1 WSW 9 17 5 9 - - 1.2
18/02:00pm 9.5 4.7 4.7 72 2.1 W 19 41 10 22 - - 1.2
18/01:30pm 8.8 3.2 3.2 68 2.4 WNW 22 44 12 24 - - 1.2
18/01:00pm 11.3 6.1 3.8 60 3.3 WNW 20 33 11 18 - - 1.0
18/12:30pm 10.1 5.3 2.5 59 3.2 W 17 30 9 16 - - 1.0
18/12:00pm 8.1 2.3 4.3 77 1.7 W 24 48 13 26 - - 1.0
18/11:30am 8.4 0.9 4.6 77 1.7 W 33 57 18 31 - - 0.8
18/11:26am 8.3 1.7 4.3 76 1.8 W 28 54 15 29 - - 0.8
18/11:00am 9.0 3.8 5.6 79 1.5 WSW 22 41 12 22 - - 0.8
18/10:30am 8.7 3.9 5.6 81 1.4 WNW 20 33 11 18 - - 0.8
18/10:00am 7.9 1.5 5.0 82 1.3 W 28 52 15 28 - - 0.2
18/09:44am 9.7 2.0 3.4 65 2.7 WNW 33 74 18 40 - - 0.0
18/09:31am 11.4 4.9 4.8 64 3.0 NW 28 50 15 27 - - 0.0
18/09:30am 11.7 5.8 5.8 67 2.8 NW 26 43 14 23 - - 0.0
18/09:00am 10.5 5.3 5.5 71 2.3 WNW 22 35 12 19 - - 1.6
18/08:30am 10.1 3.3 5.1 71 2.3 WNW 30 44 16 24 - - 1.6
18/08:02am 9.9 2.6 4.7 70 2.3 WNW 32 52 17 28 - - 1.6
18/08:00am 9.9 2.1 4.7 70 2.3 WNW 35 52 19 28 - - 1.6
18/07:31am 11.2 4.0 4.9 65 2.9 WNW 32 56 17 30 - - 1.6
18/07:30am 11.2 4.4 5.1 66 2.8 WNW 30 48 16 26 - - 1.6
18/07:01am 11.3 5.0 5.6 68 2.6 WNW 28 50 15 27 - - 1.6
18/07:00am 11.3 5.4 5.6 68 2.6 WNW 26 44 14 24 - - 1.6
18/06:30am 11.2 4.7 6.7 74 2.1 NW 30 50 16 27 - - 1.6
18/06:27am 11.6 5.6 7.1 74 2.2 NW 28 50 15 27 - - 1.6
18/06:00am 11.8 7.7 7.7 76 2.0 NW 19 30 10 16 - - 1.6
18/05:30am 12.0 7.9 7.7 75 2.1 NW 19 32 10 17 - - 1.6
18/05:00am 12.2 8.2 8.3 77 1.9 NW 19 30 10 16 - - 1.6
18/04:30am 12.2 9.1 8.7 79 1.7 NW 15 28 8 15 - - 1.6
18/04:00am 12.4 8.6 9.2 81 1.6 NW 19 28 10 15 - - 1.6
18/03:30am 12.3 9.4 9.7 84 1.3 NW 15 28 8 15 - - 1.6
18/03:00am 11.9 9.7 9.5 85 1.2 NNW 11 17 6 9 - - 1.4
18/02:30am 12.9 10.8 9.9 82 1.5 NNW 11 17 6 9 - - 0.4
18/02:00am 13.4 10.8 9.5 77 2.0 NNW 13 24 7 13 - - 0.2
18/01:30am 14.7 11.4 8.2 65 3.3 NW 15 26 8 14 - - 0.0
18/01:00am 15.1 12.2 8.1 63 3.5 NNW 13 20 7 11 - - 0.0
18/12:30am 15.0 12.5 8.3 64 3.4 NNW 11 17 6 9 - - 0.0
18/12:00am 15.3 13.2 8.1 62 3.6 NNW 9 13 5 7 - - 0.0
 
Date/Time
CST
Temp
°C
App
Temp
°C
Dew
Point
°C
Rel
Hum
%
Delta-T
°C
Wind Press
QNH
hPa
Press
MSL
hPa
Rain since
9am
mm
Dir  Spd
km/h
Gust
km/h
Spd
kts
Gust
kts
17/11:30pm 16.1 13.5 7.8 58 4.2 NNW 11 15 6 8 - - 0.0
17/11:00pm 16.4 13.4 7.6 56 4.4 N 13 22 7 12 - - 0.0
17/10:30pm 16.4 14.7 7.6 56 4.4 NNW 6 13 3 7 - - 0.0
17/10:00pm 17.0 13.5 7.1 52 4.9 N 15 20 8 11 - - 0.0
17/09:30pm 17.3 13.8 7.1 51 5.1 NNE 15 22 8 12 - - 0.0
17/09:00pm 17.1 13.2 7.2 52 5.0 NNE 17 22 9 12 - - 0.0
17/08:30pm 17.1 13.3 7.5 53 4.8 NNE 17 24 9 13 - - 0.0
17/08:00pm 17.0 13.7 7.9 55 4.6 NNE 15 26 8 14 - - 0.0
17/07:30pm 16.6 13.3 8.1 57 4.3 NNE 15 22 8 12 - - 0.0
17/07:00pm 16.6 13.7 8.1 57 4.3 NNE 13 20 7 11 - - 0.0
17/06:30pm 16.7 13.4 7.9 56 4.5 NNE 15 32 8 17 - - 0.0
17/06:00pm 16.8 13.9 8.0 56 4.5 NNE 13 22 7 12 - - 0.0
17/05:30pm 17.1 13.9 8.3 56 4.5 NNE 15 22 8 12 - - 0.0
17/05:00pm 17.4 13.4 8.3 55 4.7 N 19 28 10 15 - - 0.0
17/04:30pm 17.4 13.3 8.0 54 4.8 NNE 19 30 10 16 - - 0.0
17/04:00pm 17.8 13.0 7.5 51 5.2 NNE 22 30 12 16 - - 0.0
17/03:30pm 17.6 13.8 7.6 52 5.1 NNE 17 30 9 16 - - 0.0
17/03:00pm 17.3 14.1 8.4 56 4.6 NNE 15 22 8 12 - - 0.0
17/02:30pm 16.3 12.7 8.3 59 4.1 N 17 26 9 14 - - 0.0
17/02:00pm 17.0 13.0 8.2 56 4.5 NNW 19 28 10 15 - - 0.0
17/01:30pm 17.2 13.0 8.1 55 4.6 NNW 20 32 11 17 - - 0.0
17/01:00pm 16.5 11.2 6.6 52 4.9 N 24 33 13 18 - - 0.0
17/12:30pm 16.6 11.6 6.4 51 5.0 N 22 33 12 18 - - 0.0
17/12:00pm 16.1 11.2 5.1 48 5.2 N 20 28 11 15 - - 0.0
17/11:30am 15.9 10.6 4.9 48 5.2 NNE 22 35 12 19 - - 0.0
17/11:00am 15.1 10.2 5.0 51 4.8 N 20 28 11 15 - - 0.0
17/10:30am 14.2 9.2 4.8 53 4.4 N 20 32 11 17 - - 0.0
17/10:00am 13.9 9.9 4.8 54 4.2 NNE 15 24 8 13 - - 0.0
17/09:30am 12.9 9.7 5.1 59 3.6 NNE 11 17 6 9 - - 0.0
17/09:00am 11.6 8.8 5.3 65 2.9 ENE 9 15 5 8 - - 0.0
17/08:30am 10.1 7.1 4.3 67 2.6 E 9 15 5 8 - - 0.0
17/08:00am 9.3 6.3 4.3 71 2.2 E 9 15 5 8 - - 0.0
17/07:30am 8.6 6.1 4.6 76 1.8 ENE 7 11 4 6 - - 0.0
17/07:00am 6.9 5.6 4.0 82 1.2 CALM 0 0 0 0 - - 0.0
17/06:30am 7.2 5.9 4.0 80 1.4 CALM 0 0 0 0 - - 0.0
17/06:00am 7.6 5.5 4.0 78 1.6 E 4 9 2 5 - - 0.0
17/05:30am 7.7 4.7 3.9 77 1.6 ENE 9 13 5 7 - - 0.0
17/05:00am 7.8 4.4 3.8 76 1.7 ENE 11 15 6 8 - - 0.0
17/04:30am 7.7 4.3 3.9 77 1.6 ENE 11 15 6 8 - - 0.0
17/04:00am 8.0 4.9 3.7 74 1.9 ENE 9 13 5 7 - - 0.0
17/03:30am 8.3 4.5 3.8 73 1.9 ENE 13 19 7 10 - - 0.0
17/03:00am 8.2 4.7 3.7 73 1.9 E 11 15 6 8 - - 0.0
17/02:30am 8.2 4.3 3.5 72 2.0 ENE 13 19 7 10 - - 0.0
17/02:00am 8.0 4.5 3.7 74 1.9 ENE 11 17 6 9 - - 0.0
17/01:30am 6.7 3.5 3.3 79 1.4 E 9 13 5 7 - - 0.0
17/01:00am 7.1 4.4 3.5 78 1.5 ENE 7 13 4 7 - - 0.0
17/12:30am 6.9 4.3 3.3 78 1.5 E 6 9 3 5 - - 0.0
17/12:00am 6.9 3.7 3.3 78 1.5 ESE 9 13 5 7 - - 0.0
 
Date/Time
CST
Temp
°C
App
Temp
°C
Dew
Point
°C
Rel
Hum
%
Delta-T
°C
Wind Press
QNH
hPa
Press
MSL
hPa
Rain since
9am
mm
Dir  Spd
km/h
Gust
km/h
Spd
kts
Gust
kts
16/11:30pm 7.6 4.2 3.8 77 1.6 ESE 11 15 6 8 - - 0.0
16/11:00pm 8.0 5.0 4.2 77 1.7 ESE 9 11 5 6 - - 0.0
16/10:30pm 7.4 4.7 3.8 78 1.5 ESE 7 9 4 5 - - 0.0
16/10:00pm 8.0 5.5 4.0 76 1.7 ESE 6 7 3 4 - - 0.0
16/09:30pm 8.6 6.6 4.4 75 1.9 SE 4 6 2 3 - - 0.0
16/09:00pm 9.2 8.0 4.6 73 2.0 CALM 0 0 0 0 - - 0.0
16/08:30pm 9.7 8.1 4.5 70 2.3 S 2 6 1 3 - - 0.0
16/08:00pm 10.0 8.4 4.6 69 2.4 S 2 4 1 2 - - 0.0
16/07:30pm 10.4 8.5 5.0 69 2.5 S 4 7 2 4 - - 0.0
16/07:00pm 11.1 8.7 5.4 68 2.6 S 7 13 4 7 - - 0.0
16/06:30pm 11.6 8.8 5.3 65 2.9 S 9 13 5 7 - - 0.0
16/06:00pm 12.0 9.9 5.9 66 2.9 SSW 6 9 3 5 - - 0.0
16/05:30pm 12.4 9.7 5.8 64 3.1 S 9 13 5 7 - - 0.0
16/05:00pm 12.6 10.0 6.2 65 3.0 S 9 15 5 8 - - 0.0
16/04:30pm 12.7 9.5 7.0 68 2.8 SSE 13 17 7 9 - - 0.0
16/04:00pm 12.8 10.4 7.0 68 2.8 SSE 9 13 5 7 - - 0.0
16/03:30pm 12.9 10.3 7.8 71 2.5 SE 11 17 6 9 - - 0.0
16/03:00pm 13.0 10.5 8.3 73 2.3 SE 11 17 6 9 - - 0.0
16/02:30pm 12.8 10.3 8.1 73 2.3 SSW 11 19 6 10 - - 0.0
16/02:00pm 12.2 9.6 9.4 83 1.4 S 13 22 7 12 - - 0.0
16/01:30pm 12.4 9.9 9.6 83 1.4 SW 13 22 7 12 - - 0.0
16/01:00pm 12.6 9.8 10.1 85 1.3 SW 15 22 8 12 - - 0.0
16/12:30pm 13.3 11.2 9.7 79 1.8 SW 11 22 6 12 - - 0.0
16/12:00pm 13.7 10.2 8.7 72 2.5 SW 17 24 9 13 - - 0.0
16/11:30am 13.8 10.8 9.3 74 2.3 SW 15 28 8 15 - - 0.0
16/11:00am 14.4 11.4 9.4 72 2.6 SW 15 24 8 13 - - 0.0
16/10:30am 14.3 11.7 9.3 72 2.6 SSW 13 24 7 13 - - 0.0
16/10:00am 13.7 11.4 10.3 80 1.8 SW 13 24 7 13 - - 0.0
16/09:30am 13.3 11.2 11.0 86 1.2 WSW 13 17 7 9 - - 0.0
16/09:00am 13.1 10.1 10.8 86 1.2 WNW 17 26 9 14 - - 0.0
16/08:30am 13.0 9.9 10.2 83 1.4 NW 17 30 9 16 - - 0.0
16/08:00am 13.0 9.8 9.8 81 1.6 NW 17 28 9 15 - - 0.0
16/07:30am 12.9 9.6 9.7 81 1.6 NNW 17 24 9 13 - - 0.0
16/07:00am 12.9 9.3 9.9 82 1.5 NNW 19 26 10 14 - - 0.0
16/06:30am 13.1 10.1 9.4 78 1.9 NW 15 24 8 13 - - 0.0
16/06:00am 13.1 10.5 9.5 79 1.8 NNW 13 20 7 11 - - 0.0
16/05:30am 13.4 9.7 9.6 78 1.9 NW 19 24 10 13 - - 0.0
16/05:00am 13.7 10.5 9.9 78 2.0 NW 17 28 9 15 - - 0.0
16/04:30am 14.1 10.4 8.1 67 3.0 NNW 17 22 9 12 - - 0.0
16/04:00am 13.9 10.2 6.5 61 3.6 N 15 20 8 11 - - 0.0
16/03:30am 14.2 10.1 4.2 51 4.6 N 15 20 8 11 - - 0.0
16/03:00am 14.5 10.7 1.8 42 5.6 NNW 11 19 6 10 - - 0.0
16/02:30am 15.0 10.7 0.8 38 6.1 N 13 19 7 10 - - 0.0
16/02:00am 15.4 9.8 0.0 35 6.5 N 19 28 10 15 - - 0.0
16/01:30am 16.2 9.5 -0.9 31 7.2 N 24 41 13 22 - - 0.0
16/01:00am 15.8 9.5 -1.3 31 7.1 N 22 32 12 17 - - 0.0
16/12:30am 15.9 8.8 -1.2 31 7.1 N 26 39 14 21 - - 0.0
16/12:00am 16.1 8.2 -1.5 30 7.3 N 30 44 16 24 - - 0.0
 
Date/Time
CST
Temp
°C
App
Temp
°C
Dew
Point
°C
Rel
Hum
%
Delta-T
°C
Wind Press
QNH
hPa
Press
MSL
hPa
Rain since
9am
mm
Dir  Spd
km/h
Gust
km/h
Spd
kts
Gust
kts
15/11:49pm 16.4 8.4 -2.1 28 7.6 N 30 50 16 27 - - 0.0
15/11:30pm 17.0 9.3 -2.6 26 8.0 N 28 41 15 22 - - 0.0
15/11:00pm 17.5 9.5 -2.7 25 8.3 N 30 46 16 25 - - 0.0
15/10:30pm 17.6 10.0 -2.1 26 8.2 N 28 46 15 25 - - 0.0
15/10:04pm 18.3 10.6 -3.2 23 8.8 N 28 46 15 25 - - 0.0
15/10:00pm 18.2 10.5 -2.7 24 8.6 N 28 39 15 21 - - 0.0
15/09:50pm 18.6 10.1 -2.9 23 8.9 N 32 50 17 27 - - 0.0
15/09:30pm 18.5 10.5 -2.4 24 8.7 N 30 44 16 24 - - 0.0
15/09:00pm 18.2 10.3 -1.6 26 8.3 NNE 30 39 16 21 - - 0.0
15/08:30pm 18.1 10.7 -0.7 28 8.1 NNE 28 39 15 21 - - 0.0
15/08:20pm 18.3 10.9 -0.5 28 8.1 NNE 28 46 15 25 - - 0.0
15/08:00pm 18.2 11.4 0.8 31 7.7 NNE 26 39 14 21 - - 0.0
15/07:30pm 17.9 11.3 1.8 34 7.3 NNE 26 35 14 19 - - 0.0
15/07:00pm 17.8 11.3 2.9 37 6.9 NNE 26 39 14 21 - - 0.0
15/06:30pm 17.8 12.2 3.7 39 6.6 NNE 22 35 12 19 - - 0.0
15/06:00pm 18.1 12.1 3.6 38 6.8 NNE 24 33 13 18 - - 0.0
15/05:30pm 17.5 12.0 1.9 35 7.0 N 20 30 11 16 - - 0.0
15/05:00pm 17.8 10.2 0.5 31 7.6 N 30 43 16 23 - - 0.0
15/04:30pm 17.9 11.9 1.0 32 7.5 N 22 39 12 21 - - 0.0
15/04:00pm 18.9 12.2 1.4 31 7.9 N 26 43 14 23 - - 0.0
15/03:30pm 19.2 11.3 0.8 29 8.2 N 32 52 17 28 - - 0.0
15/03:22pm 19.2 11.6 0.8 29 8.2 N 30 52 16 28 - - 0.0
15/03:00pm 19.3 12.1 0.8 29 8.3 N 28 46 15 25 - - 0.0

Latest Capital City Observations: Canberra | Sydney | Melbourne | Brisbane | Adelaide | Perth | Hobart | Darwin

Other formats

Comma delimited format used in spreadsheet applications
http://www.bom.gov.au/fwo/IDS60901/IDS60901.94808.axf

JavaScript Object Notation format (JSON) in row-major order
http://www.bom.gov.au/fwo/IDS60901/IDS60901.94808.json

Data quality

Most of these data are generated automatically and are frequently updated. Quality checks on data are not normally performed. It is possible for incorrect values to appear. Refer to information at About Latest Weather Observations and please check the disclaimer before using these data.